LKLN 200100Z AUTO 21007KT 9999 OVC180 16/15 Q1023 LKLN 200000Z AUTO 15006KT 120V200 9999 -RA OVC100 16/15 Q1023 LKLN 192300Z AUTO VRB05KT 9999 -RA BKN067 BKN076 OVC100 17/14 Q1024 RETSRA LKLN 192200Z AUTO 31007KT 260V040 9999 FEW075 BKN120 21/12 Q1023 LKLN 192100Z AUTO VRB01KT CAVOK 19/12 Q1021 LKLN 192000Z AUTO VRB01KT CAVOK 20/12 Q1021 LKLN 191900Z AUTO 21003KT 9999 SCT240 23/13 Q1021 LKLN 191800Z AUTO VRB02KT 9999 FEW240 24/12 Q1020 LKLN 191700Z AUTO 17002KT CAVOK 26/11 Q1020 LKLN 191600Z AUTO VRB02KT CAVOK 27/09 Q1020 LKLN 191500Z AUTO VRB02KT CAVOK 27/08 Q1021 LKLN 191400Z AUTO VRB04KT CAVOK 26/08 Q1022 LKLN 191300Z AUTO VRB03KT CAVOK 26/09 Q1022 LKLN 191200Z AUTO VRB03KT CAVOK 24/07 Q1023 LKLN 191100Z AUTO VRB03KT CAVOK 23/07 Q1023 LKLN 191000Z AUTO VRB03KT CAVOK 21/06 Q1024 LKLN 190900Z AUTO 11005KT 060V180 CAVOK 19/06 Q1024 LKLN 190800Z AUTO VRB02KT CAVOK 17/03 Q1025 LKLN 190700Z AUTO VRB01KT CAVOK 16/04 Q1025 LKLN 190600Z AUTO VRB02KT CAVOK 13/05 Q1025 LKLN 190500Z AUTO VRB01KT CAVOK 10/06 Q1025 LKLN 190400Z AUTO 00000KT CAVOK 08/06 Q1025 LKLN 190300Z AUTO VRB01KT CAVOK 09/06 Q1025 LKLN 190200Z AUTO VRB02KT CAVOK 10/07 Q1025 LKLN 190100Z AUTO VRB02KT CAVOK 11/07 Q1025 LKLN 190000Z AUTO VRB02KT CAVOK 13/06 Q1025 LKLN 182300Z AUTO VRB01KT CAVOK 14/06 Q1025 LKLN 182200Z AUTO 00000KT CAVOK 16/07 Q1025 LKLN 182100Z AUTO 16003KT 130V200 CAVOK 17/07 Q1025 LKLN 182000Z AUTO 11003KT 090V150 CAVOK 17/08 Q1025 LKLN 181900Z AUTO 11004KT CAVOK 19/09 Q1025 LKLN 181800Z AUTO 10005KT CAVOK 21/09 Q1025 LKLN 181700Z AUTO 11006KT CAVOK 22/08 Q1025 LKLN 181600Z AUTO 10006KT 080V140 CAVOK 22/09 Q1025 LKLN 181500Z AUTO 11005KT 050V180 CAVOK 23/09 Q1025 LKLN 181400Z AUTO 12006KT 070V170 9999 FEW065 22/08 Q1025

METAR Messwerte "PLZEN LINE" LKLN

Zurück zur Übersicht

Ortsname
Ländercode / m ü. NN
Zeit Temperatur Taupunkt Rel.
Luftfeuchte
Luftdruck:
Altimeter
NN
Station
Wind in Beaufort
(Knoten)
Sichtweite
(Meter)
Wolken
(Meter über Grund)
Wettererscheinung
PLZEN LINE
CZ 353
Fr 20.05. 03:00161594 %1023
1023
981
SSW 3 (7)>= 10000Bedeckt (5500) 
PLZEN LINE
CZ 353
Fr 20.05. 02:00161594 %1023
1023
981
SSO 2 (6)
OSO - SSW
>= 10000Bedeckt (3000)Regen (schwach)
PLZEN LINE
CZ 353
Fr 20.05. 01:00171482 %1024
1024
982
Uml 2 (5)>= 10000Bedeckt (3000)
Stark bewölkt (2300)
Stark bewölkt (2000)
Regen (schwach)
PLZEN LINE
CZ 353
Fr 20.05. 00:00211256 %1023
1022
981
NW 3 (7)
W - NO
>= 10000Stark bewölkt (3700)
Leicht bewölkt (2300)
 
PLZEN LINE
CZ 353
Do 19.05. 23:00191264 %1021
1020
979
Uml 1 (1)>= 10000Nicht signifikant 
PLZEN LINE
CZ 353
Do 19.05. 22:00201260 %1021
1020
979
Uml 1 (1)>= 10000Nicht signifikant 
PLZEN LINE
CZ 353
Do 19.05. 21:00231353 %1021
1020
979
SSW 2 (3)>= 10000Wolkig (7300) 
PLZEN LINE
CZ 353
Do 19.05. 20:00241247 %1020
1019
978
Uml 1 (2)>= 10000Leicht bewölkt (7300) 
PLZEN LINE
CZ 353
Do 19.05. 19:00261139 %1020
1018
978
S 1 (2)>= 10000Nicht signifikant 
PLZEN LINE
CZ 353
Do 19.05. 18:0027932 %1020
1018
978
Uml 1 (2)>= 10000Nicht signifikant 
PLZEN LINE
CZ 353
Do 19.05. 17:0027830 %1021
1019
979
Uml 1 (2)>= 10000Nicht signifikant 
PLZEN LINE
CZ 353
Do 19.05. 16:0026832 %1022
1020
980
Uml 2 (4)>= 10000Nicht signifikant 
PLZEN LINE
CZ 353
Do 19.05. 15:0026934 %1022
1020
980
Uml 2 (3)>= 10000Nicht signifikant 
PLZEN LINE
CZ 353
Do 19.05. 14:0024734 %1023
1022
981
Uml 2 (3)>= 10000Nicht signifikant 
PLZEN LINE
CZ 353
Do 19.05. 13:0023736 %1023
1022
981
Uml 2 (3)>= 10000Nicht signifikant 
PLZEN LINE
CZ 353
Do 19.05. 12:0021638 %1024
1023
982
Uml 2 (3)>= 10000Nicht signifikant 
PLZEN LINE
CZ 353
Do 19.05. 11:0019643 %1024
1024
982
OSO 2 (5)
ONO - S
>= 10000Nicht signifikant 
PLZEN LINE
CZ 353
Do 19.05. 10:0017339 %1025
1025
983
Uml 1 (2)>= 10000Nicht signifikant 
PLZEN LINE
CZ 353
Do 19.05. 09:0016445 %1025
1025
983
Uml 1 (1)>= 10000Nicht signifikant 
PLZEN LINE
CZ 353
Do 19.05. 08:0013558 %1025
1025
983
Uml 1 (2)>= 10000Nicht signifikant 
PLZEN LINE
CZ 353
Do 19.05. 07:0010676 %1025
1026
983
Uml 1 (1)>= 10000Nicht signifikant 
PLZEN LINE
CZ 353
Do 19.05. 06:008687 %1025
1026
983
Windstill>= 10000Nicht signifikant 
PLZEN LINE
CZ 353
Do 19.05. 05:009681 %1025
1026
983
Uml 1 (1)>= 10000Nicht signifikant 
PLZEN LINE
CZ 353
Do 19.05. 04:0010782 %1025
1026
983
Uml 1 (2)>= 10000Nicht signifikant 
PLZEN LINE
CZ 353
Do 19.05. 03:0011776 %1025
1026
983
Uml 1 (2)>= 10000Nicht signifikant 
PLZEN LINE
CZ 353
Do 19.05. 02:0013662 %1025
1025
983
Uml 1 (2)>= 10000Nicht signifikant 
PLZEN LINE
CZ 353
Do 19.05. 01:0014658 %1025
1025
983
Uml 1 (1)>= 10000Nicht signifikant 
PLZEN LINE
CZ 353
Do 19.05. 00:0016755 %1025
1025
983
Windstill>= 10000Nicht signifikant 
PLZEN LINE
CZ 353
Mi 18.05. 23:0017752 %1025
1025
983
SSO 2 (3)
SO - SSW
>= 10000Nicht signifikant 
PLZEN LINE
CZ 353
Mi 18.05. 22:0017855 %1025
1025
983
OSO 2 (3)
O - SSO
>= 10000Nicht signifikant 
PLZEN LINE
CZ 353
Mi 18.05. 21:0019952 %1025
1025
983
OSO 2 (4)>= 10000Nicht signifikant 
PLZEN LINE
CZ 353
Mi 18.05. 20:0021946 %1025
1024
983
O 2 (5)>= 10000Nicht signifikant 
PLZEN LINE
CZ 353
Mi 18.05. 19:0022841 %1025
1024
983
OSO 2 (6)>= 10000Nicht signifikant 
PLZEN LINE
CZ 353
Mi 18.05. 18:0022943 %1025
1024
983
O 2 (6)
O - SO
>= 10000Nicht signifikant 
PLZEN LINE
CZ 353
Mi 18.05. 17:0023941 %1025
1024
983
OSO 2 (5)
NO - S
>= 10000Nicht signifikant 
PLZEN LINE
CZ 353
Mi 18.05. 16:0022841 %1025
1024
983
OSO 2 (6)
ONO - S
>= 10000Leicht bewölkt (2000) 

Altimeter: Einstellung am Altimeter (Höhenmesser), die Höhe 0 muss auf diesen Luftdruckwert zeigen, damit das Gerät die Stationshöhe richtig anzeigt.

NN: Luftdruck reduziert auf "Normal Null", auf Meereshöhe, dieser von der Temperatur abhängige Wert wird bisweilen unkorrekt einfach als "Luftdruck" bezeichnet. Eigentlich nur eine fiktive Größe, die es erlaubt, Stationen auf unterschiedlichen Höhen miteinander zu vergleichen.

Station: Realer Luftdruck an der Station.